createdAt,value
2018-12-02T14:16:02.484Z,95319.55
2018-12-02T14:18:28.846Z,95319.56
2018-12-02T14:20:55.230Z,95318.47
2018-12-02T14:23:21.578Z,95322.95
2018-12-02T14:25:47.914Z,95323.58
2018-12-02T14:28:14.245Z,95324.94
2018-12-02T14:30:40.611Z,95323.20
2018-12-02T14:33:06.954Z,95324.14
2018-12-02T14:35:33.315Z,95325.69
2018-12-02T14:37:59.650Z,95319.02
2018-12-02T14:40:26.051Z,95319.55
2018-12-02T14:42:52.469Z,95319.99
2018-12-02T14:45:18.760Z,95312.79
2018-12-02T14:47:45.095Z,95315.98
2018-12-02T14:50:11.465Z,95314.88
2018-12-02T14:52:37.830Z,95317.37
2018-12-02T14:55:04.263Z,95313.14
2018-12-02T14:57:30.602Z,95311.85
2018-12-02T14:59:56.941Z,95313.69
2018-12-02T15:02:23.338Z,95312.41
2018-12-02T15:04:49.772Z,95316.34
2018-12-02T15:07:16.056Z,95316.15
2018-12-02T15:09:42.452Z,95316.45
2018-12-02T15:12:08.861Z,95315.97
2018-12-02T15:14:35.210Z,95318.26
2018-12-02T15:17:01.648Z,95316.06
2018-12-02T15:19:28.022Z,95315.50
2018-12-02T15:21:54.411Z,95313.95
2018-12-02T15:24:20.753Z,95314.05
2018-12-02T15:26:47.158Z,95310.38
2018-12-02T15:29:13.519Z,95315.50
2018-12-02T15:31:39.850Z,95316.89
2018-12-02T15:34:06.236Z,95323.37
2018-12-02T15:36:32.574Z,95325.48
2018-12-02T15:38:59.034Z,95327.21
2018-12-02T15:41:25.391Z,95324.20
2018-12-02T15:43:51.791Z,95324.30
2018-12-02T15:46:18.125Z,95325.48
2018-12-02T15:48:44.523Z,95325.20
2018-12-02T15:51:10.878Z,95327.52
2018-12-02T15:53:37.198Z,95326.41
2018-12-02T15:56:03.537Z,95321.92
2018-12-02T15:58:29.949Z,95330.13
2018-12-02T16:00:56.395Z,95325.84
2018-12-02T16:03:22.743Z,95328.02
2018-12-02T16:05:49.132Z,95328.50
2018-12-02T16:08:15.505Z,95331.41
2018-12-02T16:10:41.900Z,95326.39
2018-12-02T16:13:08.238Z,95330.31
2018-12-02T16:15:34.621Z,95328.33
2018-12-02T16:18:02.011Z,95329.41
2018-12-02T16:20:27.361Z,95333.32
2018-12-02T16:22:55.976Z,95340.10
2018-12-02T16:25:22.313Z,95337.16
2018-12-02T16:27:48.642Z,95334.98
2018-12-02T16:30:14.970Z,95335.44
2018-12-02T16:32:41.368Z,95338.64
2018-12-02T16:35:07.754Z,95340.95
2018-12-02T16:37:34.105Z,95339.41
2018-12-02T16:40:00.434Z,95345.88
2018-12-02T16:42:26.825Z,95344.05
2018-12-02T16:44:53.224Z,95346.69
2018-12-02T16:47:19.582Z,95354.44
2018-12-02T16:49:45.919Z,95354.44
2018-12-02T16:52:12.280Z,95355.90
2018-12-02T16:54:38.649Z,95354.73
2018-12-02T16:57:05.063Z,95353.89
2018-12-02T16:59:31.388Z,95353.97
2018-12-02T17:01:57.737Z,95355.70
2018-12-02T17:04:24.176Z,95361.17
2018-12-02T17:06:50.464Z,95358.69
2018-12-02T17:09:16.814Z,95365.08
2018-12-02T17:11:43.225Z,95371.56
2018-12-02T17:14:09.574Z,95369.17
2018-12-02T17:16:35.849Z,95365.51
2018-12-02T17:19:02.205Z,95364.70
2018-12-02T17:21:28.568Z,95353.53
2018-12-02T17:23:54.873Z,95360.11
2018-12-02T17:26:21.220Z,95357.55
2018-12-02T17:28:47.702Z,95362.95
2018-12-02T17:31:14.237Z,95364.95
2018-12-02T17:33:40.575Z,95364.33
2018-12-02T17:36:06.906Z,95367.52
2018-12-02T17:38:33.239Z,95373.53
2018-12-02T17:40:59.611Z,95366.69
2018-12-02T17:43:26.045Z,95368.80
2018-12-02T17:45:52.386Z,95366.23
2018-12-02T17:48:18.733Z,95368.06
2018-12-02T17:50:45.137Z,95367.69
2018-12-02T17:53:11.544Z,95379.27
2018-12-02T17:55:37.952Z,95375.89
2018-12-02T17:58:04.318Z,95369.20
2018-12-02T18:00:30.699Z,95367.93
2018-12-02T18:02:57.023Z,95367.58
2018-12-02T18:05:23.462Z,95367.48
2018-12-02T18:07:49.897Z,95367.20
2018-12-02T18:10:16.249Z,95359.52
2018-12-02T18:12:42.657Z,95363.27
2018-12-02T18:15:09.049Z,95359.59
2018-12-02T18:17:35.456Z,95346.45
2018-12-02T18:20:01.820Z,95343.58
2018-12-02T18:22:28.301Z,95343.89
2018-12-02T18:24:54.750Z,95344.34
2018-12-02T18:27:21.390Z,95349.63
2018-12-02T18:29:47.794Z,95344.06
2018-12-02T18:32:14.148Z,95339.39
2018-12-02T18:34:40.552Z,95340.95
2018-12-02T18:37:06.921Z,95340.30
2018-12-02T18:39:33.261Z,95336.07
2018-12-02T18:41:59.619Z,95335.63
2018-12-02T18:44:25.983Z,95337.28
2018-12-02T18:46:52.424Z,95337.73
2018-12-02T18:49:18.765Z,95342.19
2018-12-02T18:51:45.168Z,95344.96
2018-12-02T18:54:11.517Z,95343.85
2018-12-02T18:56:37.866Z,95347.31
2018-12-02T18:59:04.192Z,95356.38
2018-12-02T19:01:30.664Z,95359.59
2018-12-02T19:03:56.999Z,95365.33
2018-12-02T19:06:28.132Z,95364.33
2018-12-02T19:08:49.672Z,95369.62
2018-12-02T19:11:16.019Z,95366.13
2018-12-02T19:13:43.724Z,95365.33
2018-12-02T19:16:08.792Z,95360.73
2018-12-02T19:18:35.185Z,95358.63
2018-12-02T19:21:01.519Z,95367.06
2018-12-02T19:23:27.851Z,95368.86
2018-12-02T19:25:54.229Z,95367.67
2018-12-02T19:28:20.593Z,95360.45
2018-12-02T19:30:46.941Z,95366.40
2018-12-02T19:33:13.337Z,95363.02
2018-12-02T19:35:39.673Z,95363.18
2018-12-02T19:38:05.998Z,95368.58
2018-12-02T19:40:32.332Z,95362.73
2018-12-02T19:42:58.677Z,95361.83
2018-12-02T19:45:25.085Z,95351.73
2018-12-02T19:47:51.415Z,95347.83
2018-12-02T19:50:17.757Z,95351.66
2018-12-02T19:52:44.094Z,95340.59
2018-12-02T19:55:10.503Z,95330.16
2018-12-02T19:57:36.871Z,95323.03
2018-12-02T20:00:03.250Z,95316.91
2018-12-02T20:02:29.563Z,95313.63
2018-12-02T20:04:55.914Z,95321.82
2018-12-02T20:07:22.452Z,95336.27
2018-12-02T20:09:48.823Z,95335.55
2018-12-02T20:12:15.216Z,95327.21
2018-12-02T20:14:41.629Z,95322.16
2018-12-02T20:17:07.949Z,95321.81
2018-12-02T20:19:34.360Z,95320.53
2018-12-02T20:22:00.663Z,95323.09
2018-12-02T20:24:26.992Z,95319.70
2018-12-02T20:26:53.340Z,95319.77
2018-12-02T20:29:19.660Z,95319.11
2018-12-02T20:31:46.012Z,95323.57
2018-12-02T20:34:12.397Z,95319.38
2018-12-02T20:36:38.796Z,95324.84
2018-12-02T20:39:05.128Z,95324.12
2018-12-02T20:41:31.471Z,95334.28
2018-12-02T20:43:57.856Z,95337.29
2018-12-02T20:46:24.188Z,95343.13
2018-12-02T20:48:50.584Z,95347.07
2018-12-02T20:51:16.912Z,95350.91
2018-12-02T20:53:43.345Z,95347.41
2018-12-02T20:56:09.637Z,95340.91
2018-12-02T20:58:36.026Z,95344.75
2018-12-02T21:01:02.381Z,95348.30
2018-12-02T21:03:28.750Z,95341.02
2018-12-02T21:05:55.042Z,95345.75
2018-12-02T21:08:21.372Z,95343.19
2018-12-02T21:10:47.715Z,95344.19
2018-12-02T21:13:14.091Z,95342.81
2018-12-02T21:15:40.469Z,95344.25
2018-12-02T21:18:06.840Z,95345.15
2018-12-02T21:20:33.185Z,95343.52
2018-12-02T21:22:59.600Z,95348.53
2018-12-02T21:25:25.928Z,95348.19
2018-12-02T21:27:52.282Z,95356.31
2018-12-02T21:30:18.660Z,95349.09
2018-12-02T21:32:44.933Z,95343.42
2018-12-02T21:35:11.330Z,95345.70
2018-12-02T21:37:37.673Z,95347.94
2018-12-02T21:40:04.106Z,95352.67
2018-12-02T21:42:30.515Z,95350.81
2018-12-02T21:44:56.842Z,95353.78
2018-12-02T21:47:23.251Z,95353.41
2018-12-02T21:49:49.590Z,95360.28
2018-12-02T21:52:15.998Z,95356.89
2018-12-02T21:54:42.326Z,95352.67
2018-12-02T21:57:08.742Z,95351.78
2018-12-02T21:59:35.080Z,95345.55
2018-12-02T22:02:01.461Z,95348.17
2018-12-02T22:04:27.841Z,95348.17
2018-12-02T22:06:54.200Z,95352.55
2018-12-02T22:09:20.596Z,95345.33
2018-12-02T22:11:46.895Z,95343.61
2018-12-02T22:14:13.344Z,95337.66
2018-12-02T22:16:39.687Z,95331.72
2018-12-02T22:19:06.084Z,95327.66
2018-12-02T22:21:32.430Z,95334.82
2018-12-02T22:24:01.272Z,95330.61
2018-12-02T22:26:25.180Z,95329.94
2018-12-02T22:28:51.605Z,95335.27
2018-12-02T22:31:18.074Z,95332.78
2018-12-02T22:33:44.421Z,95325.59
2018-12-02T22:36:13.908Z,95329.11
2018-12-02T22:38:37.272Z,95337.23
2018-12-02T22:41:03.659Z,95328.55
2018-12-02T22:43:30.010Z,95328.09
2018-12-02T22:45:56.361Z,95331.38
2018-12-02T22:48:22.704Z,95327.64
2018-12-02T22:50:49.043Z,95333.49
2018-12-02T22:53:15.396Z,95338.16
2018-12-02T22:55:41.724Z,95332.28
2018-12-02T22:58:08.125Z,95339.66
2018-12-02T23:00:34.460Z,95343.05
2018-12-02T23:03:00.879Z,95337.66
2018-12-02T23:05:27.212Z,95337.66
2018-12-02T23:07:53.546Z,95335.83
2018-12-02T23:10:19.917Z,95332.00
2018-12-02T23:12:46.230Z,95336.28
2018-12-02T23:15:12.640Z,95333.38
2018-12-02T23:17:39.067Z,95328.70
2018-12-02T23:20:05.512Z,95333.05
2018-12-02T23:22:31.816Z,95331.05
2018-12-02T23:24:58.171Z,95325.93
2018-12-02T23:27:24.523Z,95323.31
2018-12-02T23:29:50.891Z,95326.77
2018-12-02T23:32:17.219Z,95318.20
2018-12-02T23:34:43.545Z,95319.55
2018-12-02T23:37:09.879Z,95310.59
2018-12-02T23:39:36.338Z,95319.98
2018-12-02T23:42:02.674Z,95311.14
2018-12-02T23:44:29.086Z,95313.70
2018-12-02T23:46:55.422Z,95315.42
2018-12-02T23:49:21.818Z,95309.93
2018-12-02T23:51:48.147Z,95307.38
2018-12-02T23:54:14.476Z,95303.54
2018-12-02T23:56:40.955Z,95309.09
2018-12-02T23:59:07.311Z,95310.38
